createdAt,value
2023-01-17T05:15:30.011Z,6.50
2023-01-17T05:16:29.964Z,7.20
2023-01-17T05:17:29.957Z,8.10
2023-01-17T05:18:29.968Z,8.00
2023-01-17T05:19:30.051Z,9.40
2023-01-17T05:20:29.933Z,9.70
2023-01-17T05:21:29.904Z,6.10
2023-01-17T05:22:29.907Z,7.60
2023-01-17T05:23:29.879Z,6.30
2023-01-17T05:24:29.881Z,8.00
2023-01-17T05:25:29.856Z,6.80
2023-01-17T05:26:29.882Z,9.20
2023-01-17T05:27:29.822Z,7.10
2023-01-17T05:28:29.835Z,8.20
2023-01-17T05:29:29.823Z,6.80
2023-01-17T05:30:29.791Z,8.20
2023-01-17T05:31:29.771Z,6.80
2023-01-17T05:32:29.780Z,6.70
2023-01-17T05:33:29.751Z,11.10
2023-01-17T05:34:29.764Z,6.10
2023-01-17T05:35:29.746Z,8.70
2023-01-17T05:36:29.741Z,7.60
2023-01-17T05:37:29.703Z,7.40
2023-01-17T05:38:29.698Z,6.80
2023-01-17T05:39:29.691Z,10.10
2023-01-17T05:40:29.712Z,6.10
2023-01-17T05:41:29.734Z,7.20
2023-01-17T05:42:29.648Z,5.70
2023-01-17T05:43:29.630Z,6.80
2023-01-17T05:44:29.640Z,8.60
2023-01-17T05:45:29.609Z,5.50
2023-01-17T05:46:29.636Z,7.10
2023-01-17T05:47:29.595Z,5.90
2023-01-17T05:48:29.574Z,5.70
2023-01-17T05:49:29.562Z,7.90
2023-01-17T05:50:29.555Z,5.80
2023-01-17T05:51:29.536Z,6.60
2023-01-17T05:52:29.529Z,8.90
2023-01-17T05:53:29.513Z,7.10
2023-01-17T05:54:29.507Z,8.70
2023-01-17T05:55:29.507Z,4.60
2023-01-17T05:56:29.467Z,5.10
2023-01-17T05:57:29.461Z,6.00
2023-01-17T05:58:29.455Z,7.00
2023-01-17T05:59:36.974Z,5.50
2023-01-17T06:00:30.415Z,6.50
2023-01-17T06:01:29.404Z,8.50
2023-01-17T06:02:29.413Z,4.70
2023-01-17T06:03:29.376Z,6.50
2023-01-17T06:04:29.425Z,8.70
2023-01-17T06:05:29.349Z,7.10
2023-01-17T06:06:29.342Z,7.20
2023-01-17T06:07:29.322Z,6.00
2023-01-17T06:08:29.343Z,5.50
2023-01-17T06:09:29.328Z,8.90
2023-01-17T06:10:29.298Z,5.00
2023-01-17T06:11:29.306Z,5.50
2023-01-17T06:12:29.283Z,6.70
2023-01-17T06:13:29.242Z,6.90
2023-01-17T06:14:29.241Z,6.60
2023-01-17T06:15:29.232Z,6.70
2023-01-17T06:16:29.224Z,6.70
2023-01-17T06:17:29.190Z,7.00
2023-01-17T06:18:29.183Z,7.50
2023-01-17T06:19:29.181Z,5.40
2023-01-17T06:20:29.160Z,6.90
2023-01-17T06:21:29.142Z,7.50
2023-01-17T06:22:29.145Z,7.20
2023-01-17T06:23:29.119Z,7.60
2023-01-17T06:24:29.112Z,8.00
2023-01-17T06:25:29.099Z,8.70
2023-01-17T06:26:29.079Z,6.00
2023-01-17T06:27:29.070Z,6.60
2023-01-17T06:28:29.063Z,5.30
2023-01-17T06:29:29.044Z,8.90
2023-01-17T06:30:29.052Z,6.00
2023-01-17T06:31:29.055Z,8.30
2023-01-17T06:32:29.023Z,7.00
2023-01-17T06:33:28.989Z,10.30
2023-01-17T06:34:28.988Z,8.80
2023-01-17T06:35:28.967Z,7.80
2023-01-17T06:36:28.945Z,9.60
2023-01-17T06:37:28.940Z,5.90
2023-01-17T06:38:28.947Z,7.40
2023-01-17T06:39:28.916Z,4.40
2023-01-17T06:40:28.919Z,7.60
2023-01-17T06:41:28.916Z,4.20
2023-01-17T06:42:28.875Z,5.50
2023-01-17T06:43:28.881Z,6.00
2023-01-17T06:44:28.858Z,5.90
2023-01-17T06:45:28.853Z,4.60
2023-01-17T06:46:28.841Z,6.60
2023-01-17T06:47:28.816Z,9.40
2023-01-17T06:48:28.804Z,5.90
2023-01-17T06:49:28.800Z,6.50
2023-01-17T06:50:28.794Z,4.10
2023-01-17T06:51:28.770Z,10.00
2023-01-17T06:52:28.753Z,5.50
2023-01-17T06:53:28.733Z,5.50
2023-01-17T06:54:28.722Z,7.30
2023-01-17T06:55:28.769Z,7.10
2023-01-17T06:56:28.716Z,6.90
2023-01-17T06:57:28.693Z,8.10
2023-01-17T06:58:28.765Z,9.70
2023-01-17T06:59:28.666Z,6.70
2023-01-17T07:00:29.446Z,7.30
2023-01-17T07:01:28.711Z,9.60
2023-01-17T07:02:28.637Z,8.40
2023-01-17T07:03:28.611Z,6.90
2023-01-17T07:04:28.604Z,8.50
2023-01-17T07:05:28.689Z,8.00
2023-01-17T07:06:28.594Z,8.20
2023-01-17T07:07:28.589Z,6.50
2023-01-17T07:08:28.572Z,11.70
2023-01-17T07:09:28.541Z,6.60
2023-01-17T07:10:28.602Z,8.10
2023-01-17T07:11:28.521Z,7.90
2023-01-17T07:12:28.499Z,10.00
2023-01-17T07:13:28.527Z,10.30
2023-01-17T07:14:28.490Z,7.70
2023-01-17T07:15:28.476Z,9.60
2023-01-17T07:16:28.506Z,5.10
2023-01-17T07:17:28.436Z,9.10
2023-01-17T07:18:28.438Z,7.30
2023-01-17T07:19:28.417Z,6.90
2023-01-17T07:20:28.522Z,7.20
2023-01-17T07:21:28.397Z,12.30
2023-01-17T07:22:28.379Z,7.10
2023-01-17T07:23:28.375Z,8.90
2023-01-17T07:24:28.350Z,7.50
2023-01-17T07:25:28.370Z,6.40
2023-01-17T07:26:28.333Z,6.20
2023-01-17T07:27:28.334Z,7.80
2023-01-17T07:28:28.305Z,9.20
2023-01-17T07:29:28.278Z,9.20
2023-01-17T07:30:28.308Z,11.60
2023-01-17T07:31:28.303Z,9.50
2023-01-17T07:32:28.286Z,7.30
2023-01-17T07:33:28.263Z,11.70
2023-01-17T07:34:28.214Z,6.60
2023-01-17T07:35:28.223Z,9.30
2023-01-17T07:36:28.219Z,8.50
2023-01-17T07:37:28.185Z,9.00
2023-01-17T07:38:28.223Z,8.40
2023-01-17T07:39:28.154Z,8.40
2023-01-17T07:40:28.165Z,7.20
2023-01-17T07:41:28.135Z,9.70
2023-01-17T07:42:28.118Z,7.30
2023-01-17T07:43:28.103Z,8.40
2023-01-17T07:44:28.135Z,11.10
2023-01-17T07:45:28.108Z,8.90
2023-01-17T07:46:28.095Z,8.00
2023-01-17T07:47:28.051Z,9.20
2023-01-17T07:48:28.040Z,9.60
2023-01-17T07:49:28.120Z,11.20
2023-01-17T07:50:28.035Z,8.80
2023-01-17T07:51:29.022Z,10.80
2023-01-17T07:52:27.980Z,10.60
2023-01-17T07:53:27.992Z,12.30
2023-01-17T07:54:27.959Z,6.30
2023-01-17T07:55:27.961Z,11.30
2023-01-17T07:56:27.948Z,10.40
2023-01-17T07:57:27.932Z,13.60
2023-01-17T07:58:27.920Z,11.60
2023-01-17T07:59:27.916Z,11.90
2023-01-17T08:00:27.886Z,12.20
2023-01-17T08:01:28.036Z,12.70
2023-01-17T08:02:27.863Z,13.30
2023-01-17T08:03:27.864Z,9.70
2023-01-17T08:04:27.838Z,9.90
2023-01-17T08:05:27.826Z,12.10
2023-01-17T08:06:27.818Z,10.50
2023-01-17T08:07:27.808Z,11.10
2023-01-17T08:08:27.786Z,14.20
2023-01-17T08:09:27.777Z,10.80
2023-01-17T08:10:27.756Z,10.00
2023-01-17T08:11:27.767Z,13.50
2023-01-17T08:12:27.747Z,13.00
2023-01-17T08:13:29.812Z,16.40
2023-01-17T08:14:27.705Z,12.60
2023-01-17T08:15:27.695Z,14.30
2023-01-17T08:16:27.789Z,11.60
2023-01-17T08:17:27.675Z,15.80
2023-01-17T08:18:27.674Z,14.50
2023-01-17T08:19:27.645Z,13.40
2023-01-17T08:20:28.194Z,13.40
2023-01-17T08:21:27.654Z,12.80
2023-01-17T08:22:27.615Z,15.40
2023-01-17T08:23:27.593Z,12.20
2023-01-17T08:24:27.612Z,12.00
2023-01-17T08:25:27.572Z,15.80
2023-01-17T08:26:27.582Z,17.10
2023-01-17T08:27:27.551Z,11.10
2023-01-17T08:28:27.533Z,13.10
2023-01-17T08:29:27.562Z,15.10
2023-01-17T08:30:27.512Z,15.60
2023-01-17T08:31:27.563Z,16.80
2023-01-17T08:32:27.489Z,13.40
2023-01-17T08:33:27.471Z,12.00
2023-01-17T08:34:27.461Z,13.40
2023-01-17T08:35:27.445Z,15.40
2023-01-17T08:36:27.449Z,16.20
2023-01-17T08:37:27.421Z,13.50
2023-01-17T08:38:27.410Z,14.40
2023-01-17T08:39:27.390Z,13.00
2023-01-17T08:40:27.381Z,11.70
2023-01-17T08:41:27.389Z,17.70
2023-01-17T08:42:27.359Z,14.50
2023-01-17T08:43:27.339Z,13.40
2023-01-17T08:44:27.337Z,15.30
2023-01-17T08:45:27.427Z,16.60
2023-01-17T08:46:27.351Z,15.00
2023-01-17T08:47:27.289Z,18.30
2023-01-17T08:48:27.297Z,17.30
2023-01-17T08:49:28.210Z,17.00
2023-01-17T08:50:27.260Z,14.30
2023-01-17T08:51:27.248Z,15.70
2023-01-17T08:52:27.227Z,12.00
2023-01-17T08:53:27.207Z,13.30
2023-01-17T08:54:27.212Z,17.30
2023-01-17T08:55:27.186Z,14.70
2023-01-17T08:56:27.202Z,18.60
2023-01-17T08:57:27.166Z,13.50
2023-01-17T08:58:27.893Z,16.90
2023-01-17T08:59:27.136Z,16.30
2023-01-17T09:00:27.135Z,14.30
2023-01-17T09:01:27.189Z,13.10
2023-01-17T09:02:27.103Z,13.20
2023-01-17T09:03:27.087Z,16.40
2023-01-17T09:04:27.194Z,18.10
2023-01-17T09:05:27.060Z,16.80
2023-01-17T09:06:27.096Z,16.10
2023-01-17T09:07:27.051Z,17.80
2023-01-17T09:08:27.027Z,11.90
2023-01-17T09:09:27.015Z,13.10
2023-01-17T09:10:27.018Z,15.10
2023-01-17T09:11:26.998Z,16.10
2023-01-17T09:12:26.991Z,14.20
2023-01-17T09:13:26.962Z,13.90
2023-01-17T09:14:34.021Z,15.50
2023-01-17T09:15:27.012Z,14.30
2023-01-17T09:16:26.944Z,15.80
2023-01-17T09:17:26.916Z,12.90
2023-01-17T09:18:26.895Z,13.90
2023-01-17T09:19:26.881Z,14.30
2023-01-17T09:20:26.879Z,14.00
2023-01-17T09:21:26.869Z,17.90
2023-01-17T09:22:26.878Z,15.30
2023-01-17T09:23:26.855Z,15.00
2023-01-17T09:24:26.828Z,16.20
2023-01-17T09:25:26.804Z,14.90
2023-01-17T09:26:26.802Z,17.60
2023-01-17T09:27:26.784Z,15.90
2023-01-17T09:28:26.778Z,15.40
2023-01-17T09:29:26.769Z,17.50
2023-01-17T09:30:26.765Z,15.20
2023-01-17T09:31:26.734Z,19.50
2023-01-17T09:32:26.733Z,18.60
2023-01-17T09:33:26.710Z,18.00
2023-01-17T09:34:26.693Z,20.30
2023-01-17T09:35:26.682Z,18.00
2023-01-17T09:36:26.682Z,17.90
2023-01-17T09:37:26.662Z,18.50
2023-01-17T09:38:26.668Z,20.20
2023-01-17T09:39:26.623Z,21.30
2023-01-17T09:40:26.621Z,19.60
2023-01-17T09:41:26.604Z,22.80
2023-01-17T09:42:26.601Z,21.50
2023-01-17T09:43:26.590Z,19.00
2023-01-17T09:44:26.586Z,19.60
2023-01-17T09:45:26.549Z,19.00
2023-01-17T09:46:26.542Z,21.80
2023-01-17T09:47:26.570Z,21.50
2023-01-17T09:48:26.526Z,23.10
2023-01-17T09:49:26.499Z,21.20
2023-01-17T09:50:26.508Z,20.90
2023-01-17T09:51:26.487Z,21.80
2023-01-17T09:52:26.480Z,23.40
2023-01-17T09:53:26.457Z,22.70
2023-01-17T09:54:26.473Z,21.60
2023-01-17T09:55:26.497Z,25.10
2023-01-17T09:56:26.423Z,23.80
2023-01-17T09:57:26.398Z,20.60
2023-01-17T09:58:26.399Z,23.90
2023-01-17T09:59:32.641Z,23.50
2023-01-17T10:00:27.365Z,28.30
2023-01-17T10:01:26.570Z,23.30
2023-01-17T10:02:26.873Z,21.70
2023-01-17T10:03:26.468Z,26.30
2023-01-17T10:04:26.316Z,31.40
2023-01-17T10:05:26.296Z,27.60
2023-01-17T10:06:26.286Z,21.70
2023-01-17T10:07:26.284Z,26.30
2023-01-17T10:08:26.264Z,21.80
2023-01-17T10:09:26.246Z,25.90
2023-01-17T10:10:26.246Z,27.00
2023-01-17T10:11:26.223Z,27.40
2023-01-17T10:12:26.274Z,22.90
2023-01-17T10:13:26.198Z,28.90
2023-01-17T10:14:26.192Z,27.50
2023-01-17T10:15:26.169Z,25.40
2023-01-17T10:16:26.214Z,25.30
2023-01-17T10:17:26.167Z,28.70
2023-01-17T10:18:30.434Z,23.90
2023-01-17T10:19:26.123Z,25.60
2023-01-17T10:20:26.110Z,26.80
2023-01-17T10:21:26.091Z,27.40
2023-01-17T10:22:26.112Z,26.30
2023-01-17T10:23:26.065Z,29.10
2023-01-17T10:24:26.060Z,27.50
2023-01-17T10:25:26.052Z,25.10
2023-01-17T10:26:26.045Z,26.70
2023-01-17T10:27:26.020Z,26.90
2023-01-17T10:28:26.029Z,29.60
2023-01-17T10:29:25.993Z,24.80
2023-01-17T10:30:25.980Z,30.00
2023-01-17T10:31:25.985Z,30.00
2023-01-17T10:32:25.969Z,28.10
2023-01-17T10:33:25.998Z,28.60
2023-01-17T10:34:26.031Z,26.30
2023-01-17T10:35:25.940Z,24.30
2023-01-17T10:36:25.945Z,24.00
2023-01-17T10:37:25.892Z,26.00
2023-01-17T10:38:25.911Z,24.30
2023-01-17T10:39:25.865Z,25.70
2023-01-17T10:40:25.859Z,28.30
2023-01-17T10:41:25.856Z,24.00
2023-01-17T10:42:25.830Z,21.30
2023-01-17T10:43:25.826Z,22.70
2023-01-17T10:44:25.822Z,26.90
2023-01-17T10:45:25.816Z,24.30
2023-01-17T10:46:25.802Z,31.30
2023-01-17T10:47:25.780Z,22.80
2023-01-17T10:48:25.776Z,23.90
2023-01-17T10:49:25.758Z,20.70
2023-01-17T10:50:25.734Z,20.50
2023-01-17T10:51:25.733Z,21.90
2023-01-17T10:52:25.710Z,19.80
2023-01-17T10:53:25.697Z,24.10
2023-01-17T10:54:25.676Z,23.40
2023-01-17T10:55:25.657Z,20.70
2023-01-17T10:56:25.655Z,22.30
2023-01-17T10:57:25.634Z,27.40
2023-01-17T10:58:25.640Z,23.10
2023-01-17T10:59:25.610Z,22.60
2023-01-17T11:00:25.622Z,21.50
2023-01-17T11:01:25.695Z,20.10
2023-01-17T11:02:25.717Z,21.50
2023-01-17T11:03:25.564Z,25.50
2023-01-17T11:04:25.551Z,23.30
2023-01-17T11:05:25.526Z,22.70
2023-01-17T11:06:25.519Z,20.90
2023-01-17T11:07:25.507Z,16.20
2023-01-17T11:08:25.504Z,17.60
2023-01-17T11:09:25.474Z,18.60
2023-01-17T11:10:25.474Z,19.30
2023-01-17T11:11:25.444Z,19.10
2023-01-17T11:12:25.452Z,19.60
2023-01-17T11:13:25.441Z,21.10
2023-01-17T11:14:25.411Z,19.70
2023-01-17T11:15:25.422Z,21.70
2023-01-17T11:16:27.419Z,19.00
2023-01-17T11:17:25.374Z,20.10
2023-01-17T11:18:25.361Z,18.30
2023-01-17T11:19:25.399Z,21.30
2023-01-17T11:20:25.335Z,21.40
2023-01-17T11:21:25.325Z,18.70
2023-01-17T11:22:25.310Z,19.40
2023-01-17T11:23:25.291Z,18.90
2023-01-17T11:24:25.302Z,20.20
2023-01-17T11:25:25.268Z,17.60
2023-01-17T11:26:25.260Z,20.10
2023-01-17T11:27:25.240Z,20.40
2023-01-17T11:28:25.230Z,24.70
2023-01-17T11:29:25.229Z,21.60
2023-01-17T11:30:25.209Z,18.20
2023-01-17T11:31:25.216Z,18.60
2023-01-17T11:32:25.179Z,20.40
2023-01-17T11:33:25.159Z,18.60
2023-01-17T11:34:25.183Z,17.30
2023-01-17T11:35:25.139Z,18.80
2023-01-17T11:36:25.130Z,16.90
2023-01-17T11:37:25.119Z,16.50
2023-01-17T11:38:25.123Z,17.40
2023-01-17T11:39:25.102Z,16.60
2023-01-17T11:40:25.079Z,15.90
2023-01-17T11:41:25.058Z,18.00
2023-01-17T11:42:25.047Z,19.60
2023-01-17T11:43:25.036Z,15.90
2023-01-17T11:44:25.051Z,15.80
2023-01-17T11:45:25.006Z,13.50
2023-01-17T11:46:25.084Z,16.60
2023-01-17T11:47:24.993Z,15.80
2023-01-17T11:48:24.977Z,13.60
2023-01-17T11:49:24.968Z,19.40
2023-01-17T11:50:24.958Z,13.90
2023-01-17T11:51:24.928Z,15.60
2023-01-17T11:52:24.917Z,17.50
2023-01-17T11:53:24.937Z,13.90
2023-01-17T11:54:24.921Z,14.80
2023-01-17T11:55:24.878Z,15.10
2023-01-17T11:56:24.866Z,13.60
2023-01-17T11:57:24.865Z,19.30
2023-01-17T11:58:24.839Z,14.90
2023-01-17T11:59:24.842Z,14.40
2023-01-17T12:00:24.817Z,15.80
2023-01-17T12:01:24.807Z,20.30
2023-01-17T12:02:24.786Z,14.10
2023-01-17T12:03:24.806Z,15.70
2023-01-17T12:04:24.800Z,20.00
2023-01-17T12:05:24.756Z,15.20
2023-01-17T12:06:24.734Z,14.00
2023-01-17T12:07:24.724Z,15.80
2023-01-17T12:08:24.704Z,18.40
2023-01-17T12:09:24.706Z,17.30
2023-01-17T12:10:24.675Z,19.10
2023-01-17T12:11:24.668Z,17.80
2023-01-17T12:12:24.659Z,19.50
2023-01-17T12:13:24.645Z,18.30
2023-01-17T12:14:25.477Z,17.40
2023-01-17T12:15:24.615Z,15.50
2023-01-17T12:16:24.605Z,19.90
2023-01-17T12:17:24.584Z,21.10
2023-01-17T12:18:24.608Z,21.80
2023-01-17T12:19:24.573Z,18.50
2023-01-17T12:20:24.553Z,21.90
2023-01-17T12:21:24.535Z,17.40
2023-01-17T12:22:24.524Z,16.70
2023-01-17T12:23:24.535Z,20.00
2023-01-17T12:24:24.513Z,16.00
2023-01-17T12:25:24.485Z,18.40
2023-01-17T12:26:24.482Z,18.10
2023-01-17T12:27:24.482Z,18.70
2023-01-17T12:28:24.452Z,16.90
2023-01-17T12:29:24.436Z,16.60
2023-01-17T12:30:24.431Z,20.70
2023-01-17T12:31:24.492Z,16.50
2023-01-17T12:32:24.396Z,16.90
2023-01-17T12:33:24.392Z,18.30
2023-01-17T12:34:24.370Z,15.60
2023-01-17T12:35:24.387Z,15.30
2023-01-17T12:36:24.341Z,16.60
2023-01-17T12:37:24.331Z,13.90
2023-01-17T12:38:32.616Z,18.60
2023-01-17T12:39:25.303Z,15.30
2023-01-17T12:40:24.302Z,15.70
2023-01-17T12:41:24.306Z,17.20
2023-01-17T12:42:24.271Z,21.20
2023-01-17T12:43:24.252Z,16.70
2023-01-17T12:44:24.276Z,17.60
2023-01-17T12:45:24.250Z,14.90
2023-01-17T12:46:24.313Z,15.30
2023-01-17T12:47:24.202Z,15.40
2023-01-17T12:48:24.199Z,15.60
2023-01-17T12:49:24.191Z,19.40
2023-01-17T12:50:24.202Z,17.50
2023-01-17T12:51:24.160Z,18.00
2023-01-17T12:52:24.142Z,16.10
2023-01-17T12:53:24.122Z,16.90
2023-01-17T12:54:24.111Z,19.20
2023-01-17T12:55:24.129Z,20.10
2023-01-17T12:56:24.092Z,19.40
2023-01-17T12:57:24.070Z,19.70
2023-01-17T12:58:24.061Z,15.30
2023-01-17T12:59:24.049Z,15.60
2023-01-17T13:00:24.105Z,17.00
2023-01-17T13:01:24.185Z,17.90
2023-01-17T13:02:24.032Z,19.70
2023-01-17T13:03:23.997Z,15.60
2023-01-17T13:04:23.989Z,16.60
2023-01-17T13:05:23.988Z,17.30
2023-01-17T13:06:23.959Z,13.80
2023-01-17T13:07:23.940Z,17.60
2023-01-17T13:08:23.940Z,14.70
2023-01-17T13:09:23.916Z,19.90
2023-01-17T13:10:23.942Z,16.50
2023-01-17T13:11:23.887Z,17.10
2023-01-17T13:12:23.892Z,17.20
2023-01-17T13:13:23.907Z,17.10
2023-01-17T13:14:23.883Z,16.80
2023-01-17T13:15:23.855Z,21.30
2023-01-17T13:16:23.878Z,21.30
2023-01-17T13:17:23.821Z,18.40
2023-01-17T13:18:23.807Z,16.40
2023-01-17T13:19:23.793Z,18.00
2023-01-17T13:20:23.803Z,18.00
2023-01-17T13:21:23.758Z,17.50
2023-01-17T13:22:23.763Z,17.00
2023-01-17T13:23:23.738Z,21.00
2023-01-17T13:24:23.745Z,17.90
2023-01-17T13:25:23.732Z,25.60
2023-01-17T13:26:23.704Z,22.70
2023-01-17T13:27:23.684Z,22.30
2023-01-17T13:28:23.676Z,23.10
2023-01-17T13:29:23.668Z,15.80
2023-01-17T13:30:23.664Z,15.20
2023-01-17T13:31:23.678Z,15.70
2023-01-17T13:32:23.633Z,17.20
2023-01-17T13:33:23.612Z,17.90
2023-01-17T13:34:23.604Z,15.60
2023-01-17T13:35:23.598Z,15.30
2023-01-17T13:36:23.574Z,15.60
2023-01-17T13:37:23.554Z,20.10
2023-01-17T13:38:23.544Z,18.90
2023-01-17T13:39:23.683Z,11.90
2023-01-17T13:40:23.536Z,19.10
2023-01-17T13:41:23.504Z,17.60
2023-01-17T13:42:23.511Z,20.20
2023-01-17T13:43:23.480Z,19.10
2023-01-17T13:44:23.474Z,15.50
2023-01-17T13:45:23.543Z,15.40
2023-01-17T13:46:23.451Z,19.60
2023-01-17T13:47:23.846Z,18.70
2023-01-17T13:48:23.442Z,18.50
2023-01-17T13:49:23.419Z,17.50
2023-01-17T13:50:23.426Z,21.60
2023-01-17T13:51:23.391Z,14.70
2023-01-17T13:52:23.403Z,16.10
2023-01-17T13:53:23.352Z,16.60
2023-01-17T13:54:23.340Z,18.00
2023-01-17T13:55:23.351Z,17.90
2023-01-17T13:56:23.325Z,15.10
2023-01-17T13:57:23.312Z,14.50
2023-01-17T13:58:23.291Z,16.20
2023-01-17T13:59:23.277Z,13.10
2023-01-17T14:00:23.315Z,12.30
2023-01-17T14:01:23.444Z,16.00
2023-01-17T14:02:23.239Z,14.10
2023-01-17T14:03:23.253Z,15.10
2023-01-17T14:04:23.227Z,17.20
2023-01-17T14:05:23.281Z,13.70
2023-01-17T14:06:25.647Z,16.20
2023-01-17T14:07:23.180Z,12.20
2023-01-17T14:08:23.195Z,16.20
2023-01-17T14:09:23.165Z,13.80
2023-01-17T14:10:23.143Z,14.20
2023-01-17T14:11:23.133Z,15.00
2023-01-17T14:12:23.111Z,12.50
2023-01-17T14:13:23.095Z,13.70
2023-01-17T14:14:23.094Z,15.50
2023-01-17T14:15:23.075Z,20.00
2023-01-17T14:16:23.143Z,15.20
2023-01-17T14:17:23.140Z,17.20
2023-01-17T14:18:23.028Z,14.40
2023-01-17T14:19:23.019Z,13.30
2023-01-17T14:20:23.005Z,12.70
2023-01-17T14:21:22.996Z,11.60
2023-01-17T14:22:22.976Z,17.10
2023-01-17T14:23:22.985Z,14.50
2023-01-17T14:24:22.969Z,14.90
2023-01-17T14:25:22.944Z,14.00
2023-01-17T14:26:22.950Z,20.40
2023-01-17T14:27:22.923Z,12.60
2023-01-17T14:28:22.918Z,15.60
2023-01-17T14:29:22.886Z,12.70
2023-01-17T14:30:22.894Z,12.20
2023-01-17T14:31:22.878Z,12.10
2023-01-17T14:32:22.855Z,15.40
2023-01-17T14:33:22.835Z,16.20
2023-01-17T14:34:22.839Z,12.60
2023-01-17T14:35:22.812Z,16.00
2023-01-17T14:36:22.818Z,15.80
2023-01-17T14:37:22.819Z,11.80
2023-01-17T14:38:22.809Z,17.10
2023-01-17T14:39:22.765Z,11.90
2023-01-17T14:40:22.744Z,14.30
2023-01-17T14:41:22.742Z,15.10
2023-01-17T14:42:22.731Z,15.90
2023-01-17T14:43:22.704Z,17.00
2023-01-17T14:44:22.720Z,13.90
2023-01-17T14:45:22.692Z,15.50
2023-01-17T14:46:22.682Z,15.20
2023-01-17T14:47:22.641Z,17.80
2023-01-17T14:48:22.651Z,12.80
2023-01-17T14:49:22.633Z,15.00
2023-01-17T14:50:22.642Z,14.70
2023-01-17T14:51:22.621Z,11.30
2023-01-17T14:52:22.590Z,28.20
2023-01-17T14:53:22.573Z,126.30
2023-01-17T14:54:22.560Z,17.10
2023-01-17T14:55:22.558Z,11.90
2023-01-17T14:56:22.569Z,20.30
2023-01-17T14:57:22.539Z,11.70
2023-01-17T14:58:22.516Z,14.00
2023-01-17T14:59:22.491Z,75.80
2023-01-17T15:00:22.480Z,74.40
2023-01-17T15:01:22.541Z,26.60
2023-01-17T15:02:22.705Z,72.70
2023-01-17T15:03:22.532Z,217.10
2023-01-17T15:04:22.433Z,21.20
2023-01-17T15:05:22.410Z,12.80
2023-01-17T15:06:22.490Z,16.30
2023-01-17T15:07:22.400Z,34.10
2023-01-17T15:08:22.386Z,21.10
2023-01-17T15:09:22.384Z,11.40
2023-01-17T15:10:22.360Z,17.30
2023-01-17T15:11:22.355Z,14.50
2023-01-17T15:12:22.346Z,15.50
2023-01-17T15:13:29.793Z,17.60
2023-01-17T15:14:23.310Z,13.90
2023-01-17T15:15:22.298Z,15.30
2023-01-17T15:16:22.320Z,12.00
2023-01-17T15:17:22.277Z,14.60
2023-01-17T15:18:22.246Z,17.30
2023-01-17T15:19:22.240Z,12.40
2023-01-17T15:20:22.227Z,16.70
2023-01-17T15:21:22.227Z,24.40
2023-01-17T15:22:22.213Z,16.30
2023-01-17T15:23:22.212Z,15.70
2023-01-17T15:24:22.174Z,12.40
2023-01-17T15:25:22.170Z,16.70
2023-01-17T15:26:22.221Z,15.60
2023-01-17T15:27:22.145Z,16.60
2023-01-17T15:28:22.125Z,53.00
2023-01-17T15:29:22.127Z,77.60
2023-01-17T15:30:22.130Z,40.80
2023-01-17T15:31:22.099Z,35.90
2023-01-17T15:32:22.094Z,33.90
2023-01-17T15:33:22.064Z,32.50
2023-01-17T15:34:22.052Z,27.70
2023-01-17T15:35:22.037Z,39.10
2023-01-17T15:36:22.026Z,24.10
2023-01-17T15:37:22.092Z,25.00
2023-01-17T15:38:22.010Z,20.50
2023-01-17T15:39:21.993Z,63.70
2023-01-17T15:40:21.980Z,27.00
2023-01-17T15:41:21.962Z,19.80
2023-01-17T15:42:21.961Z,18.40
2023-01-17T15:43:21.953Z,17.70
2023-01-17T15:44:21.921Z,24.40
2023-01-17T15:45:21.912Z,21.50
2023-01-17T15:46:21.920Z,22.30
2023-01-17T15:47:21.922Z,18.30
2023-01-17T15:48:28.950Z,21.30
2023-01-17T15:49:21.903Z,19.70
2023-01-17T15:50:21.849Z,17.60
2023-01-17T15:51:21.840Z,16.40
2023-01-17T15:52:21.827Z,20.80
2023-01-17T15:53:21.821Z,21.60
2023-01-17T15:54:21.825Z,22.70
2023-01-17T15:55:22.444Z,20.40
2023-01-17T15:56:21.783Z,18.10
2023-01-17T15:57:21.762Z,22.60
2023-01-17T15:58:21.759Z,19.50
2023-01-17T15:59:21.743Z,18.80
2023-01-17T16:00:21.719Z,22.90
2023-01-17T16:01:21.771Z,19.40
2023-01-17T16:02:21.717Z,26.10
2023-01-17T16:03:21.697Z,32.50
2023-01-17T16:04:21.687Z,28.40
2023-01-17T16:05:22.056Z,25.00
2023-01-17T16:06:21.659Z,18.60
2023-01-17T16:07:21.643Z,19.80
2023-01-17T16:08:21.726Z,32.80
2023-01-17T16:09:21.609Z,26.00
2023-01-17T16:10:21.604Z,24.40
2023-01-17T16:11:21.578Z,26.30
2023-01-17T16:12:21.594Z,24.30
2023-01-17T16:13:21.572Z,23.30
2023-01-17T16:14:21.548Z,27.80
2023-01-17T16:15:21.534Z,24.50
2023-01-17T16:16:21.630Z,20.40
2023-01-17T16:17:21.505Z,23.50
2023-01-17T16:18:21.509Z,27.00
2023-01-17T16:19:21.509Z,21.30
2023-01-17T16:20:21.469Z,24.40
2023-01-17T16:21:21.461Z,23.10
2023-01-17T16:22:21.458Z,21.70
2023-01-17T16:23:21.475Z,18.30
2023-01-17T16:24:21.444Z,23.50
2023-01-17T16:25:21.413Z,22.80
2023-01-17T16:26:21.402Z,24.70
2023-01-17T16:27:21.397Z,22.30
2023-01-17T16:28:21.409Z,21.00
2023-01-17T16:29:21.355Z,23.20
2023-01-17T16:30:21.354Z,28.10
2023-01-17T16:31:21.413Z,22.40
2023-01-17T16:32:21.322Z,28.20
2023-01-17T16:33:21.314Z,26.00
2023-01-17T16:34:21.291Z,23.70
2023-01-17T16:35:21.289Z,31.40
2023-01-17T16:36:21.318Z,28.60
2023-01-17T16:37:22.142Z,25.10
2023-01-17T16:38:21.473Z,24.80
2023-01-17T16:39:21.232Z,26.60
2023-01-17T16:40:21.224Z,24.50
2023-01-17T16:41:21.211Z,28.80
2023-01-17T16:42:21.190Z,24.50
2023-01-17T16:43:21.179Z,27.10
2023-01-17T16:44:21.181Z,32.10
2023-01-17T16:45:21.186Z,29.30
2023-01-17T16:46:21.177Z,30.50
2023-01-17T16:47:21.128Z,28.50
2023-01-17T16:48:21.131Z,25.80
2023-01-17T16:49:21.098Z,27.70
2023-01-17T16:50:21.092Z,30.10
2023-01-17T16:51:21.084Z,29.20
2023-01-17T16:52:21.087Z,26.10
2023-01-17T16:53:24.050Z,29.20
2023-01-17T16:54:21.060Z,25.70
2023-01-17T16:55:21.034Z,31.30
2023-01-17T16:56:21.028Z,31.30
2023-01-17T16:57:20.997Z,29.40
2023-01-17T16:58:20.996Z,29.90
2023-01-17T16:59:20.968Z,33.70
2023-01-17T17:00:20.961Z,29.60
2023-01-17T17:01:21.367Z,29.50
2023-01-17T17:02:20.966Z,28.70
2023-01-17T17:03:20.941Z,34.80
2023-01-17T17:04:20.945Z,32.20
2023-01-17T17:05:20.926Z,33.60
2023-01-17T17:06:20.909Z,32.50
2023-01-17T17:07:20.874Z,34.90
2023-01-17T17:08:20.892Z,32.70
2023-01-17T17:09:20.846Z,33.20
2023-01-17T17:10:20.844Z,32.20
2023-01-17T17:11:20.830Z,28.00
2023-01-17T17:12:20.803Z,33.90
2023-01-17T17:13:20.807Z,32.30
2023-01-17T17:14:20.786Z,33.50
2023-01-17T17:15:20.783Z,39.40
2023-01-17T17:16:20.777Z,37.10
2023-01-17T17:17:20.732Z,34.10
2023-01-17T17:18:20.745Z,42.10
2023-01-17T17:19:20.719Z,51.50
2023-01-17T17:20:20.704Z,56.90
2023-01-17T17:21:20.690Z,50.10
2023-01-17T17:22:20.695Z,43.60
2023-01-17T17:23:20.700Z,40.00
2023-01-17T17:24:20.673Z,50.50
2023-01-17T17:25:20.631Z,51.60
2023-01-17T17:26:20.634Z,46.90
2023-01-17T17:27:20.613Z,53.60
2023-01-17T17:28:20.620Z,56.00
2023-01-17T17:29:20.592Z,55.10
2023-01-17T17:30:20.604Z,62.20
2023-01-17T17:31:20.605Z,60.30
2023-01-17T17:32:20.561Z,79.70
2023-01-17T17:33:20.591Z,85.60
2023-01-17T17:34:20.549Z,83.00
2023-01-17T17:35:20.518Z,81.50
2023-01-17T17:36:20.595Z,77.30
2023-01-17T17:37:20.494Z,65.00
2023-01-17T17:38:20.502Z,71.00
2023-01-17T17:39:20.481Z,73.00
2023-01-17T17:40:20.465Z,87.70
2023-01-17T17:41:20.447Z,76.10
2023-01-17T17:42:20.435Z,76.70
2023-01-17T17:43:20.408Z,79.60
2023-01-17T17:44:20.457Z,83.10
2023-01-17T17:45:20.374Z,79.50
2023-01-17T17:46:20.443Z,84.50
2023-01-17T17:47:20.368Z,76.90
2023-01-17T17:48:20.353Z,67.90
2023-01-17T17:49:20.388Z,59.20
2023-01-17T17:50:20.337Z,67.20
2023-01-17T17:51:20.350Z,59.30
2023-01-17T17:52:20.303Z,64.10
2023-01-17T17:53:20.294Z,60.40
2023-01-17T17:54:20.296Z,70.80
2023-01-17T17:55:20.261Z,75.80
2023-01-17T17:56:20.250Z,78.70
2023-01-17T17:57:20.232Z,77.70
2023-01-17T17:58:20.228Z,84.00
2023-01-17T17:59:20.211Z,94.50
2023-01-17T18:00:20.200Z,98.00
2023-01-17T18:01:20.361Z,95.00
2023-01-17T18:02:20.195Z,87.00
2023-01-17T18:03:20.168Z,81.30
2023-01-17T18:04:20.159Z,81.50
2023-01-17T18:05:20.131Z,80.00
2023-01-17T18:06:20.164Z,79.20
2023-01-17T18:07:20.129Z,86.20
2023-01-17T18:08:20.098Z,85.90
2023-01-17T18:09:20.098Z,83.20
2023-01-17T18:10:20.069Z,88.10
2023-01-17T18:11:20.071Z,82.90
2023-01-17T18:12:20.050Z,77.10